Time;durP1;ratioP1;P1;durP2;ratioP2;P2;SDS_P1;SDS_P2;PMS_P1;PMS_P2;Temp;Humidity;BMP_temperature;BMP_pressure;BME280_temperature;BME280_humidity;BME280_pressure;Samples;Min_cycle;Max_cycle;Signal;HPM_P1;HPM_P2
2022/10/27 00:02:07;;;;;;;8.50;4.17;;;;;;;;;;5015967;28;20216;-77
2022/10/27 00:04:35;;;;;;;6.03;4.30;;;;;;;;;;4980481;28;20233;-77
2022/10/27 00:07:01;;;;;;;4.37;3.97;;;;;;;;;;4970359;28;20224;-78
2022/10/27 00:09:26;;;;;;;7.87;4.23;;;;;;;;;;4990957;28;20243;-78
2022/10/27 00:11:54;;;;;;;6.63;4.37;;;;;;;;;;4992063;28;20274;-80
2022/10/27 00:14:20;;;;;;;3.90;3.50;;;;;;;;;;4989444;28;20243;-77
2022/10/27 00:16:51;;;;;;;6.33;3.50;;;;;;;;;;4997419;28;20315;-77
2022/10/27 00:19:16;;;;;;;5.23;3.57;;;;;;;;;;5008323;28;20299;-77
2022/10/27 00:21:42;;;;;;;5.20;3.70;;;;;;;;;;5002930;28;20228;-79
2022/10/27 00:24:08;;;;;;;4.97;3.83;;;;;;;;;;5015351;28;20259;-79
2022/10/27 00:26:33;;;;;;;3.80;3.50;;;;;;;;;;4980171;28;20236;-78
2022/10/27 00:29:01;;;;;;;6.87;3.50;;;;;;;;;;4999324;28;20228;-79
2022/10/27 00:31:26;;;;;;;4.00;3.70;;;;;;;;;;4998458;28;20224;-78
2022/10/27 00:33:54;;;;;;;3.73;3.20;;;;;;;;;;5021888;28;20600;-78
2022/10/27 00:36:21;;;;;;;7.73;3.40;;;;;;;;;;5020073;28;20231;-79
2022/10/27 00:38:46;;;;;;;3.03;2.67;;;;;;;;;;5017223;28;20236;-77
2022/10/27 00:41:35;;;;;;;5.20;2.93;;;;;;;;;;5012397;28;20318;-78
2022/10/27 00:44:22;;;;;;;3.13;2.77;;;;;;;;;;5002884;28;20232;-78
2022/10/27 00:46:47;;;;;;;3.63;2.83;;;;;;;;;;5028381;28;20234;-79
2022/10/27 00:49:15;;;;;;;3.77;2.77;;;;;;;;;;5010224;28;20226;-79
2022/10/27 00:51:44;;;;;;;6.17;3.17;;;;;;;;;;5006837;28;20220;-79
2022/10/27 00:54:12;;;;;;;5.30;4.17;;;;;;;;;;4982390;28;20282;-78
2022/10/27 00:56:40;;;;;;;6.47;4.50;;;;;;;;;;4984197;28;20208;-78
2022/10/27 00:59:06;;;;;;;9.10;4.17;;;;;;;;;;4998431;28;20307;-78
2022/10/27 01:01:31;;;;;;;7.33;4.17;;;;;;;;;;4988063;28;20216;-78
2022/10/27 01:03:59;;;;;;;4.27;3.87;;;;;;;;;;5004536;28;20233;-79
2022/10/27 01:06:24;;;;;;;6.47;3.07;;;;;;;;;;4996747;28;20223;-78
2022/10/27 01:08:52;;;;;;;9.30;3.43;;;;;;;;;;4992622;28;20239;-79
2022/10/27 01:11:20;;;;;;;7.50;4.47;;;;;;;;;;5000092;28;20212;-78
2022/10/27 01:13:45;;;;;;;7.43;4.40;;;;;;;;;;4994452;28;20265;-78
2022/10/27 01:16:34;;;;;;;6.23;4.43;;;;;;;;;;4988551;28;20221;-78
2022/10/27 01:19:06;;;;;;;8.47;5.73;;;;;;;;;;4991098;28;20228;-78
2022/10/27 01:21:47;;;;;;;6.13;5.60;;;;;;;;;;5012477;28;20294;-78
2022/10/27 01:24:34;;;;;;;7.33;5.30;;;;;;;;;;5008532;28;20319;-77
2022/10/27 01:27:39;;;;;;;6.10;5.07;;;;;;;;;;5004725;28;20691;-77
2022/10/27 01:30:07;;;;;;;8.50;5.20;;;;;;;;;;5007873;28;20220;-78
2022/10/27 01:32:50;;;;;;;9.90;5.80;;;;;;;;;;4976071;28;20594;-78
2022/10/27 01:35:32;;;;;;;6.67;5.57;;;;;;;;;;5000343;28;20227;-79
2022/10/27 01:38:20;;;;;;;8.13;6.53;;;;;;;;;;5012563;28;20236;-77
2022/10/27 01:40:55;;;;;;;7.17;6.00;;;;;;;;;;5009907;28;20293;-79
2022/10/27 01:43:23;;;;;;;7.77;6.97;;;;;;;;;;4997043;28;20224;-78
2022/10/27 01:45:49;;;;;;;7.33;5.37;;;;;;;;;;4992340;28;20220;-79
2022/10/27 01:48:17;;;;;;;6.47;5.90;;;;;;;;;;5004178;28;20216;-79
2022/10/27 01:50:45;;;;;;;6.37;5.53;;;;;;;;;;4988208;28;20227;-79
2022/10/27 01:53:11;;;;;;;6.13;4.70;;;;;;;;;;5004104;28;20217;-78
2022/10/27 01:55:45;;;;;;;6.27;5.50;;;;;;;;;;4989969;28;20675;-78
2022/10/27 01:58:35;;;;;;;5.93;5.43;;;;;;;;;;5013676;28;20319;-77
2022/10/27 02:01:00;;;;;;;5.67;4.80;;;;;;;;;;4993357;28;20232;-77
2022/10/27 02:03:34;;;;;;;7.03;4.33;;;;;;;;;;5000481;28;20224;-77
2022/10/27 02:06:05;;;;;;;5.17;4.50;;;;;;;;;;4985302;28;20212;-78
2022/10/27 02:08:34;;;;;;;4.83;3.13;;;;;;;;;;4991490;28;20239;-78
2022/10/27 02:11:04;;;;;;;3.53;3.23;;;;;;;;;;5003026;28;21065;-78
2022/10/27 02:13:31;;;;;;;4.70;2.80;;;;;;;;;;4989170;28;20240;-78
2022/10/27 02:16:00;;;;;;;3.87;3.40;;;;;;;;;;4993851;28;20220;-77
2022/10/27 02:18:27;;;;;;;4.50;2.90;;;;;;;;;;4997959;28;20230;-77
2022/10/27 02:20:57;;;;;;;3.87;3.30;;;;;;;;;;4981632;28;20673;-78
2022/10/27 02:23:25;;;;;;;4.50;3.10;;;;;;;;;;5000099;28;20662;-78
2022/10/27 02:25:57;;;;;;;4.60;3.23;;;;;;;;;;4996656;28;20223;-78
2022/10/27 02:28:35;;;;;;;3.17;2.70;;;;;;;;;;4980009;28;20237;-77
2022/10/27 02:31:03;;;;;;;3.13;2.73;;;;;;;;;;4998222;28;20227;-77
2022/10/27 02:33:28;;;;;;;3.20;2.90;;;;;;;;;;4983948;28;20224;-78
2022/10/27 02:35:56;;;;;;;3.37;2.90;;;;;;;;;;5005595;28;20356;-78
2022/10/27 02:38:25;;;;;;;3.30;3.00;;;;;;;;;;4984966;28;20235;-78
2022/10/27 02:40:50;;;;;;;4.60;2.90;;;;;;;;;;4982774;28;20252;-78
2022/10/27 02:43:16;;;;;;;3.47;3.17;;;;;;;;;;4976890;28;20216;-78
2022/10/27 02:45:41;;;;;;;3.53;3.13;;;;;;;;;;5012584;28;20697;-78
2022/10/27 02:48:10;;;;;;;4.10;3.27;;;;;;;;;;4996846;28;20239;-78
2022/10/27 02:50:40;;;;;;;3.40;3.10;;;;;;;;;;4996047;28;20581;-78
2022/10/27 02:53:05;;;;;;;6.97;3.00;;;;;;;;;;5006081;28;20212;-78
2022/10/27 02:55:31;;;;;;;5.67;3.53;;;;;;;;;;5022957;28;20226;-78
2022/10/27 02:57:56;;;;;;;7.40;3.27;;;;;;;;;;5003107;28;20228;-78
2022/10/27 03:00:22;;;;;;;5.07;3.53;;;;;;;;;;5005899;28;20311;-78
2022/10/27 03:02:50;;;;;;;4.73;3.20;;;;;;;;;;5008854;28;20242;-77
2022/10/27 03:05:17;;;;;;;3.30;2.83;;;;;;;;;;4995931;28;20217;-78
2022/10/27 03:07:45;;;;;;;3.93;2.87;;;;;;;;;;4991414;28;20224;-78
2022/10/27 03:10:11;;;;;;;3.50;3.20;;;;;;;;;;4999401;28;20352;-78
2022/10/27 03:12:36;;;;;;;3.27;2.90;;;;;;;;;;5008161;28;20229;-78
2022/10/27 03:15:04;;;;;;;5.60;2.47;;;;;;;;;;5009946;28;20220;-78
2022/10/27 03:17:30;;;;;;;3.50;3.10;;;;;;;;;;5009638;28;20224;-79
2022/10/27 03:19:55;;;;;;;6.33;3.60;;;;;;;;;;5024399;28;20227;-78
2022/10/27 03:22:21;;;;;;;5.40;3.27;;;;;;;;;;4999201;28;20734;-78
2022/10/27 03:24:51;;;;;;;4.40;3.10;;;;;;;;;;5019461;28;20224;-77
2022/10/27 03:27:19;;;;;;;4.40;3.37;;;;;;;;;;5002248;28;20624;-77
2022/10/27 03:29:45;;;;;;;3.67;3.17;;;;;;;;;;5003699;28;20266;-78
2022/10/27 03:32:10;;;;;;;3.53;3.23;;;;;;;;;;5004278;28;20232;-76
2022/10/27 03:34:36;;;;;;;4.77;3.57;;;;;;;;;;4992333;28;20246;-77
2022/10/27 03:37:05;;;;;;;4.33;3.17;;;;;;;;;;4991219;28;20586;-76
2022/10/27 03:39:31;;;;;;;4.93;3.37;;;;;;;;;;4995782;28;20235;-77
2022/10/27 03:41:56;;;;;;;5.53;3.33;;;;;;;;;;5007206;28;20235;-77
2022/10/27 03:44:22;;;;;;;3.80;3.20;;;;;;;;;;4973067;28;20229;-78
2022/10/27 03:46:48;;;;;;;7.90;3.97;;;;;;;;;;5011575;28;20228;-77
2022/10/27 03:49:16;;;;;;;6.67;3.87;;;;;;;;;;4990078;28;20212;-76
2022/10/27 03:51:43;;;;;;;6.27;4.13;;;;;;;;;;5020747;28;20721;-77
2022/10/27 03:54:11;;;;;;;6.83;4.43;;;;;;;;;;5013159;28;20312;-77
2022/10/27 03:56:37;;;;;;;7.77;4.27;;;;;;;;;;4988751;28;20232;-77
2022/10/27 03:59:03;;;;;;;6.23;4.33;;;;;;;;;;5022988;28;20224;-77
2022/10/27 04:01:31;;;;;;;7.37;4.33;;;;;;;;;;5017364;28;20232;-76
2022/10/27 04:03:59;;;;;;;6.07;4.10;;;;;;;;;;5001392;28;20255;-77
2022/10/27 04:06:24;;;;;;;6.83;3.80;;;;;;;;;;4992949;28;20231;-77
2022/10/27 04:08:52;;;;;;;7.50;4.13;;;;;;;;;;5009117;28;20228;-77
2022/10/27 04:11:23;;;;;;;9.97;4.80;;;;;;;;;;5012677;28;20212;-77
2022/10/27 04:13:51;;;;;;;7.60;5.00;;;;;;;;;;4981669;28;20239;-77
2022/10/27 04:16:16;;;;;;;6.87;4.67;;;;;;;;;;5002851;28;20813;-78
2022/10/27 04:18:42;;;;;;;9.80;6.20;;;;;;;;;;4997826;28;20708;-77
2022/10/27 04:21:09;;;;;;;8.63;4.90;;;;;;;;;;5001594;28;20220;-77
2022/10/27 04:23:37;;;;;;;8.87;6.00;;;;;;;;;;5006336;28;20682;-77
2022/10/27 04:26:05;;;;;;;8.10;4.77;;;;;;;;;;4995333;28;20216;-77
2022/10/27 04:28:31;;;;;;;5.00;4.40;;;;;;;;;;5018222;28;20225;-77
2022/10/27 04:30:59;;;;;;;5.53;4.30;;;;;;;;;;4985454;28;20312;-77
2022/10/27 04:33:26;;;;;;;7.07;5.03;;;;;;;;;;5011200;28;20219;-77
2022/10/27 04:35:52;;;;;;;8.70;5.47;;;;;;;;;;4980783;28;20710;-78
2022/10/27 04:38:17;;;;;;;5.73;5.10;;;;;;;;;;5007139;28;20272;-77
2022/10/27 04:40:43;;;;;;;7.40;4.57;;;;;;;;;;4980044;28;20223;-77
2022/10/27 04:43:08;;;;;;;6.03;4.77;;;;;;;;;;5006311;28;20243;-77
2022/10/27 04:45:36;;;;;;;4.53;4.13;;;;;;;;;;5005966;28;20247;-77
2022/10/27 04:48:02;;;;;;;6.03;5.37;;;;;;;;;;5022587;28;21167;-77
2022/10/27 04:50:27;;;;;;;7.37;4.57;;;;;;;;;;4984789;28;20251;-76
2022/10/27 04:53:00;;;;;;;5.53;4.23;;;;;;;;;;5004944;28;20225;-77
2022/10/27 04:55:30;;;;;;;8.33;4.43;;;;;;;;;;4995038;28;20232;-77
2022/10/27 04:57:55;;;;;;;5.50;4.00;;;;;;;;;;5007041;28;20232;-77
2022/10/27 05:00:21;;;;;;;4.63;3.43;;;;;;;;;;4970128;28;20282;-78
2022/10/27 05:02:56;;;;;;;5.07;3.57;;;;;;;;;;4989716;28;20232;-77
2022/10/27 05:05:22;;;;;;;5.47;3.60;;;;;;;;;;5002333;28;20227;-77
2022/10/27 05:07:59;;;;;;;4.90;3.40;;;;;;;;;;5009925;28;20244;-77
2022/10/27 05:10:28;;;;;;;4.87;4.07;;;;;;;;;;5001632;28;20231;-77
2022/10/27 05:12:58;;;;;;;4.23;3.80;;;;;;;;;;5012623;28;20216;-78
2022/10/27 05:15:23;;;;;;;4.40;3.80;;;;;;;;;;5003076;28;20223;-76
2022/10/27 05:17:51;;;;;;;5.80;3.43;;;;;;;;;;5002283;28;20278;-77
2022/10/27 05:20:19;;;;;;;4.73;3.60;;;;;;;;;;4990751;28;20224;-78
2022/10/27 05:22:49;;;;;;;6.40;3.50;;;;;;;;;;5002398;28;20319;-77
2022/10/27 05:25:17;;;;;;;7.03;4.60;;;;;;;;;;4992559;28;20716;-77
2022/10/27 05:27:45;;;;;;;9.03;4.57;;;;;;;;;;4994467;28;20228;-77
2022/10/27 05:30:11;;;;;;;6.03;3.93;;;;;;;;;;5005759;28;20248;-77
2022/10/27 05:32:40;;;;;;;4.50;4.10;;;;;;;;;;5005370;28;20303;-77
2022/10/27 05:35:08;;;;;;;6.53;4.37;;;;;;;;;;5004681;28;20247;-77
2022/10/27 05:37:34;;;;;;;5.40;4.97;;;;;;;;;;5006745;28;20311;-77
2022/10/27 05:40:02;;;;;;;5.47;4.97;;;;;;;;;;5010285;28;20242;-77
2022/10/27 05:42:28;;;;;;;5.17;4.73;;;;;;;;;;4973536;28;20694;-77
2022/10/27 05:44:58;;;;;;;5.30;4.80;;;;;;;;;;4969160;28;20623;-76
2022/10/27 05:47:25;;;;;;;5.87;4.87;;;;;;;;;;4973546;28;20327;-77
2022/10/27 05:49:51;;;;;;;8.60;6.10;;;;;;;;;;4967675;28;20375;-75
2022/10/27 05:52:16;;;;;;;8.10;5.97;;;;;;;;;;4969005;28;20706;-76
2022/10/27 05:54:42;;;;;;;5.63;5.13;;;;;;;;;;4993751;28;20693;-77
2022/10/27 05:57:07;;;;;;;5.43;4.93;;;;;;;;;;4998675;28;20220;-77
2022/10/27 05:59:33;;;;;;;8.17;6.70;;;;;;;;;;5001655;28;20228;-76
2022/10/27 06:02:01;;;;;;;7.10;6.50;;;;;;;;;;4982708;28;20223;-76
2022/10/27 06:04:26;;;;;;;6.10;5.53;;;;;;;;;;5011464;28;20256;-76
2022/10/27 06:07:00;;;;;;;6.23;5.50;;;;;;;;;;4983175;28;20224;-76
2022/10/27 06:09:26;;;;;;;7.87;6.53;;;;;;;;;;5019227;28;20224;-76
2022/10/27 06:11:51;;;;;;;6.17;5.67;;;;;;;;;;5012212;28;20299;-77
2022/10/27 06:14:19;;;;;;;7.07;5.70;;;;;;;;;;5015850;28;20619;-77
2022/10/27 06:16:44;;;;;;;5.63;5.10;;;;;;;;;;4990132;28;20227;-76
2022/10/27 06:19:10;;;;;;;7.60;6.10;;;;;;;;;;5005755;28;20694;-76
2022/10/27 06:21:35;;;;;;;7.17;6.17;;;;;;;;;;4998143;28;20485;-76
2022/10/27 06:24:01;;;;;;;6.43;5.83;;;;;;;;;;5019015;28;20239;-76
2022/10/27 06:26:29;;;;;;;8.43;6.93;;;;;;;;;;4957215;28;20243;-76
2022/10/27 06:28:59;;;;;;;8.03;7.20;;;;;;;;;;4988640;28;20644;-77
2022/10/27 06:31:25;;;;;;;7.60;6.87;;;;;;;;;;4980368;28;20229;-76
2022/10/27 06:33:50;;;;;;;13.67;6.87;;;;;;;;;;4985183;28;20225;-76
2022/10/27 06:36:18;;;;;;;7.47;6.77;;;;;;;;;;5001984;28;20223;-76
2022/10/27 06:38:43;;;;;;;7.13;6.53;;;;;;;;;;4976481;28;20274;-76
2022/10/27 06:41:11;;;;;;;8.00;7.30;;;;;;;;;;5003182;28;20824;-77
2022/10/27 06:43:37;;;;;;;7.23;6.53;;;;;;;;;;4989091;28;20232;-77
2022/10/27 06:46:05;;;;;;;7.10;6.50;;;;;;;;;;4991176;28;20636;-77
2022/10/27 06:48:30;;;;;;;6.57;5.63;;;;;;;;;;4961477;28;20212;-77
2022/10/27 06:50:56;;;;;;;5.83;5.33;;;;;;;;;;4968099;28;20236;-76
2022/10/27 06:53:21;;;;;;;6.13;5.53;;;;;;;;;;5002148;28;20209;-76
2022/10/27 06:55:47;;;;;;;6.20;5.70;;;;;;;;;;4976623;28;20231;-77
2022/10/27 06:58:12;;;;;;;7.83;5.50;;;;;;;;;;4981354;28;20234;-76
2022/10/27 07:00:40;;;;;;;7.27;6.57;;;;;;;;;;4991387;28;20273;-76
2022/10/27 07:03:09;;;;;;;8.57;6.70;;;;;;;;;;4986786;28;20233;-76
2022/10/27 07:05:35;;;;;;;6.77;6.17;;;;;;;;;;4988252;28;20302;-77
2022/10/27 07:08:00;;;;;;;7.40;6.70;;;;;;;;;;4996976;28;20983;-76
2022/10/27 07:10:28;;;;;;;7.37;6.70;;;;;;;;;;4993656;28;20275;-77
2022/10/27 07:12:56;;;;;;;7.60;6.93;;;;;;;;;;4979940;28;20216;-77
2022/10/27 07:15:23;;;;;;;8.03;7.33;;;;;;;;;;4970679;28;20246;-77
2022/10/27 07:17:54;;;;;;;8.13;7.33;;;;;;;;;;4997313;28;20302;-76
2022/10/27 07:20:21;;;;;;;7.63;6.90;;;;;;;;;;4964584;28;20224;-78
2022/10/27 07:22:47;;;;;;;8.07;7.27;;;;;;;;;;5005074;28;20665;-77
2022/10/27 07:25:12;;;;;;;8.27;7.47;;;;;;;;;;4997123;28;20212;-76
2022/10/27 07:27:38;;;;;;;7.57;6.90;;;;;;;;;;4994313;28;20255;-76
2022/10/27 07:30:04;;;;;;;8.47;7.73;;;;;;;;;;4987040;28;20274;-77
2022/10/27 07:32:30;;;;;;;8.23;6.97;;;;;;;;;;4980697;28;20307;-76
2022/10/27 07:34:57;;;;;;;7.80;7.10;;;;;;;;;;4994676;28;20307;-77
2022/10/27 07:37:23;;;;;;;7.03;6.43;;;;;;;;;;4983131;28;20327;-77
2022/10/27 07:39:49;;;;;;;7.20;6.47;;;;;;;;;;4997485;28;20610;-76
2022/10/27 07:42:16;;;;;;;7.73;6.30;;;;;;;;;;4973598;28;20228;-75
2022/10/27 07:44:42;;;;;;;7.20;6.37;;;;;;;;;;4976202;28;20236;-75
2022/10/27 07:47:08;;;;;;;8.50;6.90;;;;;;;;;;4989525;28;20223;-76
2022/10/27 07:49:34;;;;;;;7.17;6.47;;;;;;;;;;4988214;28;20569;-75
2022/10/27 07:52:00;;;;;;;7.43;5.87;;;;;;;;;;4985266;28;20243;-77
2022/10/27 07:54:25;;;;;;;6.60;6.00;;;;;;;;;;4980102;28;20224;-75
2022/10/27 07:56:51;;;;;;;7.87;7.17;;;;;;;;;;5001744;28;20711;-75
2022/10/27 07:59:17;;;;;;;8.40;7.40;;;;;;;;;;4978962;28;20773;-75
2022/10/27 08:01:43;;;;;;;9.50;6.40;;;;;;;;;;4990001;28;20231;-75
2022/10/27 08:04:11;;;;;;;7.43;6.83;;;;;;;;;;5020900;28;20319;-75
2022/10/27 08:06:41;;;;;;;6.53;5.93;;;;;;;;;;4987675;28;20224;-75
2022/10/27 08:09:09;;;;;;;6.80;6.20;;;;;;;;;;4992422;28;20217;-75
2022/10/27 08:11:35;;;;;;;6.30;5.67;;;;;;;;;;4995274;28;20653;-76
2022/10/27 08:14:02;;;;;;;6.97;5.83;;;;;;;;;;5001156;28;20597;-76
2022/10/27 08:16:28;;;;;;;6.63;6.03;;;;;;;;;;4996452;28;20825;-75
2022/10/27 08:18:56;;;;;;;12.63;5.77;;;;;;;;;;5016950;28;20234;-75
2022/10/27 08:21:24;;;;;;;6.50;5.70;;;;;;;;;;5002361;28;20228;-76
2022/10/27 08:23:53;;;;;;;5.73;5.23;;;;;;;;;;4981559;28;20749;-75
2022/10/27 08:26:19;;;;;;;6.67;5.00;;;;;;;;;;4975868;28;20216;-76
2022/10/27 08:28:46;;;;;;;5.33;4.93;;;;;;;;;;4996217;28;20307;-75
2022/10/27 08:31:17;;;;;;;5.50;5.10;;;;;;;;;;4990804;28;20233;-74
2022/10/27 08:33:43;;;;;;;5.40;4.90;;;;;;;;;;5004050;28;20225;-74
2022/10/27 08:36:10;;;;;;;5.43;4.93;;;;;;;;;;4979721;28;20273;-76
2022/10/27 08:38:38;;;;;;;5.87;5.27;;;;;;;;;;5005238;28;20232;-75
2022/10/27 08:41:09;;;;;;;5.37;4.57;;;;;;;;;;5005532;28;20709;-75
2022/10/27 08:43:52;;;;;;;6.13;5.57;;;;;;;;;;5002490;28;20240;-77
2022/10/27 08:46:22;;;;;;;5.67;4.93;;;;;;;;;;4991628;28;20224;-76
2022/10/27 08:48:50;;;;;;;8.23;5.57;;;;;;;;;;5003367;28;20223;-76
2022/10/27 08:51:17;;;;;;;5.60;5.10;;;;;;;;;;4997448;28;20254;-75
2022/10/27 08:53:46;;;;;;;5.30;4.80;;;;;;;;;;4985857;28;20225;-75
2022/10/27 08:56:11;;;;;;;5.30;4.90;;;;;;;;;;4989811;28;20216;-75
2022/10/27 08:58:41;;;;;;;5.57;5.00;;;;;;;;;;4989274;28;20316;-75
2022/10/27 09:01:18;;;;;;;7.33;4.97;;;;;;;;;;4970851;28;20299;-76
2022/10/27 09:04:05;;;;;;;7.03;5.03;;;;;;;;;;5002063;28;20252;-75
2022/10/27 09:06:37;;;;;;;5.75;4.50;;;;;;;;;;5021272;28;20240;-75
2022/10/27 09:09:19;;;;;;;5.23;4.77;;;;;;;;;;4971854;28;20227;-75
2022/10/27 09:12:15;;;;;;;5.17;4.73;;;;;;;;;;4995994;28;20237;-74
2022/10/27 09:14:45;;;;;;;5.17;4.37;;;;;;;;;;4996452;28;20224;-75
2022/10/27 09:17:15;;;;;;;5.63;4.63;;;;;;;;;;5008821;28;20217;-76
2022/10/27 09:19:46;;;;;;;5.57;4.53;;;;;;;;;;4989685;28;20597;-76
2022/10/27 09:22:20;;;;;;;7.00;4.60;;;;;;;;;;4990132;28;20232;-76
2022/10/27 09:25:06;;;;;;;5.85;4.80;;;;;;;;;;4972474;28;20625;-73
2022/10/27 09:27:34;;;;;;;5.83;4.40;;;;;;;;;;5001113;28;20338;-73
2022/10/27 09:30:13;;;;;;;5.82;4.20;;;;;;;;;;4974553;28;20217;-75
2022/10/27 09:32:40;;;;;;;4.80;3.70;;;;;;;;;;4991735;28;20233;-76
2022/10/27 09:35:15;;;;;;;4.65;4.10;;;;;;;;;;4986289;28;20224;-75
2022/10/27 09:37:44;;;;;;;5.28;3.83;;;;;;;;;;4977264;28;20449;-75
2022/10/27 09:40:15;;;;;;;4.30;3.90;;;;;;;;;;4986263;28;20290;-76
2022/10/27 09:42:41;;;;;;;6.63;4.18;;;;;;;;;;4990951;28;20801;-74
2022/10/27 09:45:12;;;;;;;8.32;4.10;;;;;;;;;;4991298;28;20232;-74
2022/10/27 09:47:39;;;;;;;5.00;3.85;;;;;;;;;;4999697;28;20228;-75
2022/10/27 09:50:05;;;;;;;4.38;3.85;;;;;;;;;;4987989;28;20208;-75
2022/10/27 09:52:33;;;;;;;4.28;3.75;;;;;;;;;;4977139;28;20232;-74
2022/10/27 09:55:01;;;;;;;4.53;3.50;;;;;;;;;;4976587;28;20303;-74
2022/10/27 09:57:28;;;;;;;4.28;3.47;;;;;;;;;;4971393;28;20233;-74
2022/10/27 10:00:29;;;;;;;3.97;3.45;;;;;;;;;;4975223;28;20899;-74
2022/10/27 10:03:16;;;;;;;6.22;3.78;;;;;;;;;;4994705;28;20225;-76
2022/10/27 10:05:43;;;;;;;5.43;3.50;;;;;;;;;;4973277;28;20216;-73
2022/10/27 10:08:18;;;;;;;3.75;3.42;;;;;;;;;;4953260;28;20611;-74
2022/10/27 10:10:56;;;;;;;4.55;2.95;;;;;;;;;;4972939;28;20228;-73
2022/10/27 10:13:25;;;;;;;3.13;2.80;;;;;;;;;;4980784;28;20228;-73
2022/10/27 10:16:17;;;;;;;3.58;2.67;;;;;;;;;;4956980;28;20242;-75
2022/10/27 10:18:43;;;;;;;4.43;2.67;;;;;;;;;;4979626;28;20256;-75
2022/10/27 10:21:12;;;;;;;4.03;2.40;;;;;;;;;;4991900;28;20227;-74
2022/10/27 10:23:50;;;;;;;3.08;2.30;;;;;;;;;;4992535;28;20246;-74
2022/10/27 10:26:22;;;;;;;3.42;2.60;;;;;;;;;;4999687;28;20216;-74
2022/10/27 10:28:51;;;;;;;3.90;2.55;;;;;;;;;;5004788;28;20243;-74
2022/10/27 10:31:26;;;;;;;5.90;2.33;;;;;;;;;;4988034;28;20694;-75
2022/10/27 10:34:04;;;;;;;2.20;2.00;;;;;;;;;;4972963;28;20215;-76
2022/10/27 10:36:34;;;;;;;3.63;2.22;;;;;;;;;;4986185;28;20227;-76
2022/10/27 10:39:00;;;;;;;4.45;2.17;;;;;;;;;;4986366;28;20702;-75
2022/10/27 10:41:30;;;;;;;2.75;2.10;;;;;;;;;;4991958;28;20646;-75
2022/10/27 10:44:12;;;;;;;4.03;2.17;;;;;;;;;;4980939;28;20229;-76
2022/10/27 10:46:54;;;;;;;2.33;1.58;;;;;;;;;;5006665;28;20232;-75
2022/10/27 10:49:23;;;;;;;2.65;2.05;;;;;;;;;;4990052;28;20224;-75
2022/10/27 10:51:54;;;;;;;6.22;2.45;;;;;;;;;;4970300;28;20228;-76
2022/10/27 10:54:26;;;;;;;3.83;2.15;;;;;;;;;;4980082;28;20220;-75
2022/10/27 10:56:52;;;;;;;1.90;1.80;;;;;;;;;;4994386;28;20601;-75
2022/10/27 10:59:19;;;;;;;4.97;2.33;;;;;;;;;;4988902;28;20236;-76
2022/10/27 11:01:57;;;;;;;3.25;2.13;;;;;;;;;;4981045;28;20312;-76
2022/10/27 11:04:30;;;;;;;3.30;2.00;;;;;;;;;;5023585;28;20748;-76
2022/10/27 11:06:58;;;;;;;6.30;2.55;;;;;;;;;;5005060;28;20220;-76
2022/10/27 11:09:44;;;;;;;3.72;1.88;;;;;;;;;;5021135;28;20692;-76
2022/10/27 11:12:23;;;;;;;4.18;2.20;;;;;;;;;;4981685;28;20216;-76
2022/10/27 11:14:48;;;;;;;3.38;2.17;;;;;;;;;;4997081;28;20232;-76
2022/10/27 11:17:17;;;;;;;2.03;1.83;;;;;;;;;;4987706;28;20230;-76
2022/10/27 11:19:46;;;;;;;4.20;2.20;;;;;;;;;;4995309;28;20651;-76
2022/10/27 11:22:16;;;;;;;3.15;2.00;;;;;;;;;;4994836;28;20651;-76
2022/10/27 11:24:56;;;;;;;3.20;2.00;;;;;;;;;;5004548;28;20228;-76
2022/10/27 11:27:35;;;;;;;2.78;2.00;;;;;;;;;;4992556;28;20255;-75
2022/10/27 11:30:05;;;;;;;4.28;2.33;;;;;;;;;;5003908;28;20228;-75
2022/10/27 11:32:33;;;;;;;3.75;2.42;;;;;;;;;;5000388;28;20235;-76
2022/10/27 11:35:19;;;;;;;2.88;2.25;;;;;;;;;;5007879;28;20216;-76
2022/10/27 11:37:50;;;;;;;2.10;1.90;;;;;;;;;;4996024;28;20229;-75
2022/10/27 11:40:40;;;;;;;4.07;2.28;;;;;;;;;;4973910;28;20235;-75
2022/10/27 11:43:11;;;;;;;3.58;2.53;;;;;;;;;;5001086;28;20261;-76
2022/10/27 11:45:55;;;;;;;2.45;2.25;;;;;;;;;;5002265;28;20358;-75
2022/10/27 11:48:28;;;;;;;2.75;2.40;;;;;;;;;;5019008;28;20228;-76
2022/10/27 11:51:20;;;;;;;3.08;2.05;;;;;;;;;;4975357;28;20228;-76
2022/10/27 11:53:53;;;;;;;4.60;1.92;;;;;;;;;;4990937;28;20729;-75
2022/10/27 11:56:44;;;;;;;4.60;2.50;;;;;;;;;;4996669;28;20624;-76
2022/10/27 11:59:21;;;;;;;3.95;2.00;;;;;;;;;;4982442;28;20299;-75
2022/10/27 12:02:14;;;;;;;3.17;2.40;;;;;;;;;;5020742;28;20299;-75
2022/10/27 12:05:02;;;;;;;2.90;2.30;;;;;;;;;;5002843;28;20246;-76
2022/10/27 12:07:44;;;;;;;3.50;1.90;;;;;;;;;;4979237;28;20233;-75
2022/10/27 12:10:09;;;;;;;3.10;2.17;;;;;;;;;;4985736;28;20243;-75
2022/10/27 12:12:38;;;;;;;2.20;2.00;;;;;;;;;;5021584;28;20244;-75
2022/10/27 12:15:19;;;;;;;2.88;2.00;;;;;;;;;;4999179;28;20236;-76
2022/10/27 12:17:53;;;;;;;3.13;2.10;;;;;;;;;;5015175;28;20231;-76
2022/10/27 12:20:25;;;;;;;2.20;2.00;;;;;;;;;;4969386;28;20251;-76
2022/10/27 12:23:15;;;;;;;4.03;2.20;;;;;;;;;;4999781;28;20239;-76
2022/10/27 12:25:45;;;;;;;2.78;1.77;;;;;;;;;;4988176;28;20224;-76
2022/10/27 12:28:12;;;;;;;3.03;1.55;;;;;;;;;;4973157;28;20229;-75
2022/10/27 12:30:41;;;;;;;2.67;1.80;;;;;;;;;;5008565;28;20225;-76
2022/10/27 12:33:21;;;;;;;2.08;1.50;;;;;;;;;;4969421;28;20686;-75
2022/10/27 12:35:48;;;;;;;2.25;1.80;;;;;;;;;;4987379;28;20604;-76
2022/10/27 12:38:18;;;;;;;1.80;1.65;;;;;;;;;;4995774;28;20307;-75
2022/10/27 12:40:51;;;;;;;1.70;1.58;;;;;;;;;;4998401;28;20228;-75
2022/10/27 12:43:31;;;;;;;3.00;1.85;;;;;;;;;;4997192;28;20308;-75
2022/10/27 12:46:12;;;;;;;1.83;1.60;;;;;;;;;;5012021;28;20741;-74
2022/10/27 12:49:02;;;;;;;2.17;1.80;;;;;;;;;;4988686;28;20243;-75
2022/10/27 12:52:14;;;;;;;2.28;1.63;;;;;;;;;;5023902;28;20732;-75
2022/10/27 12:55:04;;;;;;;2.13;1.73;;;;;;;;;;4985928;28;20540;-76
2022/10/27 12:57:42;;;;;;;2.42;1.55;;;;;;;;;;5021555;28;20232;-76
2022/10/27 13:00:16;;;;;;;1.63;1.50;;;;;;;;;;4986230;28;20221;-75
2022/10/27 13:02:44;;;;;;;3.05;1.70;;;;;;;;;;4992492;28;20580;-75
2022/10/27 13:05:31;;;;;;;1.50;1.40;;;;;;;;;;5004295;28;20223;-75
2022/10/27 13:08:24;;;;;;;2.63;1.67;;;;;;;;;;4994762;28;20228;-75
2022/10/27 13:10:59;;;;;;;2.25;1.52;;;;;;;;;;4993828;28;20227;-75
2022/10/27 13:13:39;;;;;;;2.88;1.73;;;;;;;;;;5008964;28;20277;-74
2022/10/27 13:16:35;;;;;;;2.47;1.40;;;;;;;;;;5010788;28;20312;-75
2022/10/27 13:19:22;;;;;;;4.53;1.70;;;;;;;;;;5005133;28;20253;-74
2022/10/27 13:22:15;;;;;;;2.78;1.98;;;;;;;;;;5022405;28;20697;-76
2022/10/27 13:24:49;;;;;;;2.15;1.48;;;;;;;;;;4970757;28;20360;-76
2022/10/27 13:27:34;;;;;;;3.40;1.65;;;;;;;;;;4960812;28;20234;-74
2022/10/27 13:30:05;;;;;;;2.13;1.52;;;;;;;;;;5002973;28;20728;-74
2022/10/27 13:32:46;;;;;;;3.47;1.67;;;;;;;;;;4971674;28;20224;-74
2022/10/27 13:35:12;;;;;;;4.25;1.77;;;;;;;;;;5014437;28;20221;-74
2022/10/27 13:37:37;;;;;;;1.85;1.70;;;;;;;;;;5021335;28;20255;-74
2022/10/27 13:40:25;;;;;;;2.83;1.60;;;;;;;;;;5009165;28;20277;-76
2022/10/27 13:43:14;;;;;;;2.35;1.40;;;;;;;;;;5008011;28;20655;-75
2022/10/27 13:45:45;;;;;;;2.50;1.63;;;;;;;;;;5019320;28;20292;-76
2022/10/27 13:48:30;;;;;;;3.13;1.92;;;;;;;;;;4997568;28;20220;-73
2022/10/27 13:51:18;;;;;;;2.28;1.60;;;;;;;;;;4993109;28;20239;-75
2022/10/27 13:53:56;;;;;;;2.45;1.70;;;;;;;;;;4994808;28;20228;-77
2022/10/27 13:56:37;;;;;;;2.03;1.50;;;;;;;;;;5000917;28;20235;-77
2022/10/27 13:59:14;;;;;;;2.78;1.75;;;;;;;;;;5018247;28;20238;-74
2022/10/27 14:01:48;;;;;;;4.90;1.90;;;;;;;;;;4978528;28;20231;-74
2022/10/27 14:04:19;;;;;;;3.92;1.85;;;;;;;;;;4988780;28;20216;-74
2022/10/27 14:06:46;;;;;;;3.10;1.45;;;;;;;;;;5006951;28;20235;-75
2022/10/27 14:09:17;;;;;;;2.42;1.50;;;;;;;;;;4983877;28;20229;-76
2022/10/27 14:11:45;;;;;;;3.80;1.70;;;;;;;;;;5011478;28;20235;-76
2022/10/27 14:14:22;;;;;;;1.65;1.50;;;;;;;;;;5000330;28;20227;-76
2022/10/27 14:16:47;;;;;;;2.65;1.88;;;;;;;;;;4986785;28;20439;-75
2022/10/27 14:19:14;;;;;;;2.15;1.70;;;;;;;;;;4983228;28;20238;-75
2022/10/27 14:21:47;;;;;;;2.15;1.65;;;;;;;;;;4976466;28;20315;-75
2022/10/27 14:24:19;;;;;;;3.25;2.00;;;;;;;;;;5000607;28;20581;-76
2022/10/27 14:26:45;;;;;;;2.58;1.75;;;;;;;;;;4968080;28;20224;-75
2022/10/27 14:29:20;;;;;;;2.22;1.48;;;;;;;;;;4976682;28;20228;-75
2022/10/27 14:31:46;;;;;;;1.67;1.52;;;;;;;;;;5001555;28;20225;-75
2022/10/27 14:34:22;;;;;;;2.38;1.77;;;;;;;;;;5000713;28;20224;-75
2022/10/27 14:36:48;;;;;;;3.42;1.60;;;;;;;;;;5006102;28;20248;-75
2022/10/27 14:39:23;;;;;;;2.00;1.80;;;;;;;;;;4991540;28;20244;-76
2022/10/27 14:41:51;;;;;;;2.47;1.75;;;;;;;;;;5016476;28;20760;-75
2022/10/27 14:44:24;;;;;;;3.22;2.10;;;;;;;;;;4992824;28;20303;-75
2022/10/27 14:46:50;;;;;;;3.35;2.00;;;;;;;;;;4975350;28;20595;-75
2022/10/27 14:49:25;;;;;;;2.67;1.92;;;;;;;;;;5000896;28;20224;-75
2022/10/27 14:51:53;;;;;;;3.45;1.70;;;;;;;;;;5000800;28;20236;-75
2022/10/27 14:54:19;;;;;;;4.28;2.15;;;;;;;;;;4997171;28;20247;-76
2022/10/27 14:56:44;;;;;;;1.70;1.52;;;;;;;;;;4979493;28;20235;-74
2022/10/27 14:59:20;;;;;;;2.53;1.67;;;;;;;;;;4992396;28;20753;-75
2022/10/27 15:01:48;;;;;;;4.43;1.80;;;;;;;;;;4992405;28;20216;-74
2022/10/27 15:04:25;;;;;;;2.00;1.70;;;;;;;;;;4986450;28;20220;-74
2022/10/27 15:06:56;;;;;;;2.05;1.85;;;;;;;;;;4976630;28;20706;-74